| Date | Time | Temp. (oF) | Dew Point (oF) | Rel. Hum. (%) | Press. (in.) | Wind Dir. | Wind Speed (mph) | Hourly Rainfall (in.) |
|
|---|---|---|---|---|---|---|---|---|---|
| 1 | 07/03 | 00:00 | 64 | 59 | 86 | 29.84 | SSW | 0 | 0.00 |
| 2 | 07/02 | 23:00 | 66 | 61 | 85 | 29.84 | SSW | 0 | 0.00 |
| 3 | 07/02 | 22:00 | 67 | 61 | 84 | 29.83 | SW | 0 | 0.00 |
| 4 | 07/02 | 21:00 | 69 | 62 | 81 | 29.81 | S | 0 | 0.00 |
| 5 | 07/02 | 20:00 | 71 | 62 | 74 | 29.80 | SSW | 0 | 0.00 |
| 6 | 07/02 | 19:00 | 72 | 62 | 72 | 29.81 | SW | 0 | 0.00 |
| 7 | 07/02 | 18:00 | 72 | 63 | 74 | 29.81 | SSW | 1 | 0.00 |
| 8 | 07/02 | 17:00 | 72 | 63 | 74 | 29.82 | SW | 4 | 0.00 |
| 9 | 07/02 | 16:00 | 72 | 62 | 72 | 29.83 | SW | 0 | 0.00 |
| 10 | 07/02 | 15:00 | 72 | 60 | 68 | 29.83 | S | 0 | 0.00 |
| 11 | 07/02 | 14:00 | 73 | 60 | 66 | 29.83 | SE | 0 | 0.00 |
| 12 | 07/02 | 13:00 | 75 | 61 | 63 | 29.83 | S | 0 | 0.00 |
| 13 | 07/02 | 12:00 | 72 | 59 | 66 | 29.84 | SE | 2 | 0.00 |
| 14 | 07/02 | 11:00 | 71 | 62 | 74 | 29.84 | SSE | 1 | 0.00 |
| 15 | 07/02 | 10:00 | 69 | 62 | 79 | 29.85 | SSE | 3 | 0.00 |
| 16 | 07/02 | 09:00 | 67 | 62 | 85 | 29.84 | E | 0 | 0.00 |
| 17 | 07/02 | 08:00 | 64 | 60 | 87 | 29.85 | SSE | 0 | 0.00 |
| 18 | 07/02 | 07:00 | 62 | 58 | 87 | 29.84 | NE | 0 | 0.00 |
| 19 | 07/02 | 06:00 | 61 | 57 | 87 | 29.83 | SSW | 0 | 0.00 |
| 20 | 07/02 | 05:00 | 61 | 57 | 87 | 29.81 | S | 0 | 0.00 |
| 21 | 07/02 | 04:00 | 62 | 57 | 86 | 29.82 | SSW | 0 | 0.00 |
| 22 | 07/02 | 03:00 | 62 | 57 | 86 | 29.82 | SSW | 0 | 0.00 |
| 23 | 07/02 | 02:00 | 63 | 58 | 85 | 29.83 | SE | 0 | 0.00 |
| 24 | 07/02 | 01:00 | 64 | 58 | 81 | 29.83 | W | 0 | 0.00 |